KBED

Laurence G. Hanscom Field

Airport
ICAO code
KBED
IATA Code
BED
Summary
ICAO Region
NAM
ICAO Territory
Location

Bedford, Massachusetts

Serving
Bedford
Elevation
133 ft
Coordinates
42° 28' 15" N , 71° 17' 22" W
KCC
Airport WX
Cumulonimbus
Metar
KBED 221451Z AUTO 18010G16KT 10SM CLR 02/M05 A3005 RMK AO2 SLP193 T00171050 58027

Description

Laurence G. Hanscom Field, also known as both Hanscom Field and Hanscom Air Force Base, is a public use airport located in Bedford, Massachusetts.

Airport map

Aerial View

Airport accidents

SKYbrary Partners:

Safety knowledge contributed by: